createdAt,value
2022-07-28T00:00:39.015Z,100602.06
2022-07-28T00:05:36.599Z,100605.78
2022-07-28T00:10:39.049Z,100644.75
2022-07-28T00:15:46.048Z,100559.34
2022-07-28T00:26:04.759Z,100623.28
2022-07-28T00:31:05.016Z,100634.72
2022-07-28T00:36:06.696Z,100662.91
2022-07-28T00:41:18.396Z,100671.66
2022-07-28T00:46:26.451Z,100660.34
2022-07-28T00:51:27.487Z,100659.97
2022-07-28T00:56:29.946Z,100633.84
2022-07-28T01:01:31.764Z,100625.34
2022-07-28T01:06:52.882Z,100582.59
2022-07-28T01:12:04.185Z,100605.06
2022-07-28T01:17:13.097Z,100610.16
2022-07-28T01:22:19.707Z,100642.50
2022-07-28T01:27:54.596Z,100622.38
2022-07-28T01:33:21.021Z,100616.91
2022-07-28T01:38:20.037Z,100580.63
2022-07-28T01:43:23.915Z,100654.59
2022-07-28T01:48:25.037Z,100690.91
2022-07-28T01:53:26.042Z,100622.13
2022-07-28T01:58:30.173Z,100680.53
2022-07-28T02:03:31.946Z,100666.78
2022-07-28T02:08:32.378Z,100580.72
2022-07-28T02:13:33.249Z,100605.06
2022-07-28T02:18:33.870Z,100607.25
2022-07-28T02:23:32.871Z,100668.00
2022-07-28T02:28:35.066Z,100607.41
2022-07-28T02:33:58.793Z,100711.47
2022-07-28T02:39:06.382Z,100716.84
2022-07-28T02:44:16.744Z,100698.38
2022-07-28T02:49:34.361Z,100702.72
2022-07-28T02:54:39.766Z,100714.66
2022-07-28T02:59:44.403Z,100720.34
2022-07-28T03:04:58.391Z,100738.50
2022-07-28T03:09:59.916Z,100717.16
2022-07-28T03:15:00.873Z,100726.72
2022-07-28T03:20:06.345Z,100670.94
2022-07-28T03:25:11.286Z,100671.94
2022-07-28T03:30:18.487Z,100662.50
2022-07-28T03:35:19.156Z,100764.84
2022-07-28T03:47:01.412Z,100747.53
2022-07-28T03:52:56.642Z,100715.09
2022-07-28T03:59:38.634Z,100677.13
2022-07-28T04:05:29.740Z,100777.47
2022-07-28T04:22:51.324Z,100813.41
2022-07-28T04:28:23.385Z,100803.84
2022-07-28T04:33:24.477Z,100768.03
2022-07-28T04:38:37.400Z,100822.81
2022-07-28T04:44:35.408Z,100773.28
2022-07-28T04:50:16.557Z,100851.34
2022-07-28T04:55:40.275Z,100787.59
2022-07-28T05:01:35.810Z,100862.75
2022-07-28T05:07:20.547Z,100873.94
2022-07-28T05:12:30.298Z,100843.56
2022-07-28T05:17:30.810Z,100839.97
2022-07-28T05:22:46.255Z,100817.63
2022-07-28T05:27:50.382Z,100820.38
2022-07-28T05:33:00.964Z,100804.81
2022-07-28T05:38:11.355Z,100895.00
2022-07-28T05:43:21.310Z,100816.03
2022-07-28T05:48:32.088Z,100876.41
2022-07-28T05:54:03.455Z,100846.63
2022-07-28T06:04:56.513Z,100797.38
2022-07-28T06:10:08.243Z,100905.63
2022-07-28T06:16:17.721Z,100890.22
2022-07-28T06:22:42.991Z,100834.31
2022-07-28T06:28:50.055Z,100891.91
2022-07-28T06:55:11.357Z,100939.16
2022-07-28T07:06:37.035Z,100934.13
2022-07-28T07:19:26.962Z,100943.53
2022-07-28T07:32:20.657Z,100944.06
2022-07-28T07:58:53.702Z,100922.94
2022-07-28T11:23:58.934Z,100874.97
2022-07-28T11:29:22.527Z,100874.09
2022-07-28T11:34:26.341Z,100893.22
2022-07-28T11:39:51.077Z,100865.03
2022-07-28T11:44:49.479Z,100885.78
2022-07-28T11:50:53.763Z,100817.75
2022-07-28T11:56:13.119Z,100859.31
2022-07-28T12:01:38.237Z,100901.66
2022-07-28T12:06:40.212Z,100876.47
2022-07-28T12:11:54.782Z,100860.94
2022-07-28T12:16:54.833Z,100828.56
2022-07-28T12:21:55.315Z,100850.63
2022-07-28T12:26:59.100Z,100815.56
2022-07-28T12:32:04.422Z,100865.00
2022-07-28T12:37:05.606Z,100853.25
2022-07-28T12:42:08.202Z,100806.56
2022-07-28T12:47:08.460Z,100809.22
2022-07-28T12:52:22.967Z,100833.69
2022-07-28T12:57:50.350Z,100820.66
2022-07-28T13:03:05.150Z,100822.78
2022-07-28T13:08:18.914Z,100827.91
2022-07-28T13:13:27.207Z,100796.38
2022-07-28T13:18:52.480Z,100802.53
2022-07-28T13:24:09.722Z,100745.91
2022-07-28T13:29:59.643Z,100799.09
2022-07-28T13:35:34.152Z,100740.81
2022-07-28T13:41:15.853Z,100727.66
2022-07-28T13:46:17.994Z,100820.63
2022-07-28T13:51:27.555Z,100840.13
2022-07-28T13:56:26.231Z,100822.97
2022-07-28T14:01:24.584Z,100812.28
2022-07-28T14:06:28.130Z,100872.28
2022-07-28T14:11:27.231Z,100824.41
2022-07-28T14:16:25.251Z,100898.22
2022-07-28T14:21:22.337Z,100953.75
2022-07-28T14:26:35.544Z,100867.09
2022-07-28T14:31:38.407Z,100871.56
2022-07-28T14:36:35.633Z,100918.28
2022-07-28T14:41:33.437Z,100929.59
2022-07-28T14:46:32.879Z,100918.28
2022-07-28T14:51:34.260Z,100913.13
2022-07-28T14:56:44.422Z,100891.72
2022-07-28T15:01:41.687Z,100864.44
2022-07-28T15:06:42.673Z,100811.94
2022-07-28T15:11:49.382Z,100810.19
2022-07-28T15:17:13.168Z,100819.03
2022-07-28T15:22:19.495Z,100835.34
2022-07-28T15:27:33.042Z,100845.91
2022-07-28T15:32:31.794Z,100867.63
2022-07-28T15:37:30.452Z,100874.56
2022-07-28T15:42:28.162Z,100902.97
2022-07-28T15:47:25.641Z,100918.34
2022-07-28T15:52:40.496Z,100901.28
2022-07-28T16:02:58.659Z,100888.09
2022-07-28T16:07:57.454Z,100885.59
2022-07-28T16:12:57.141Z,100871.66
2022-07-28T16:17:54.846Z,100930.06
2022-07-28T16:22:52.610Z,100999.91
2022-07-28T16:28:03.022Z,100959.31
2022-07-28T16:33:00.585Z,100920.44
2022-07-28T16:37:59.900Z,100949.69
2022-07-28T16:43:15.988Z,101029.63
2022-07-28T16:48:25.892Z,100968.47
2022-07-28T16:53:28.432Z,101030.78
2022-07-28T16:58:37.100Z,100965.34
2022-07-28T17:03:34.572Z,101045.47
2022-07-28T17:09:27.598Z,101026.94
2022-07-28T17:14:37.212Z,101047.72
2022-07-28T17:20:06.882Z,101085.50
2022-07-28T17:31:02.439Z,101034.31
2022-07-28T17:36:45.169Z,101081.25
2022-07-28T17:41:55.930Z,101094.34
2022-07-28T17:47:04.159Z,101075.47
2022-07-28T17:52:32.348Z,101114.28
2022-07-28T17:58:08.946Z,101103.56
2022-07-28T18:03:18.642Z,101099.22
2022-07-28T18:09:08.177Z,101077.66
2022-07-28T18:15:03.185Z,101082.34
2022-07-28T18:20:38.105Z,101084.06
2022-07-28T18:25:55.169Z,101024.50
2022-07-28T18:30:52.658Z,101064.50
2022-07-28T18:35:51.959Z,101020.28
2022-07-28T18:40:52.761Z,101009.75
2022-07-28T18:45:51.789Z,101053.06
2022-07-28T18:50:50.384Z,101066.53
2022-07-28T18:55:48.842Z,101036.56
2022-07-28T19:00:47.521Z,101074.34
2022-07-28T19:06:08.153Z,101138.38
2022-07-28T19:11:05.647Z,101124.56
2022-07-28T19:16:04.567Z,101156.88
2022-07-28T19:21:10.524Z,101125.59
2022-07-28T19:26:08.670Z,101176.84
2022-07-28T19:31:10.115Z,101173.47
2022-07-28T19:36:24.339Z,101173.28
2022-07-28T19:41:30.824Z,101171.78
2022-07-28T19:47:38.157Z,101157.97
2022-07-28T19:52:37.455Z,101165.41
2022-07-28T19:58:49.507Z,101122.25
2022-07-28T20:04:03.748Z,101083.75
2022-07-28T20:09:08.077Z,101087.44
2022-07-28T20:19:51.085Z,101102.56
2022-07-28T20:24:48.817Z,101146.50
2022-07-28T20:29:48.341Z,101155.63
2022-07-28T20:34:53.030Z,101154.16
2022-07-28T20:39:54.767Z,101156.78
2022-07-28T20:44:54.314Z,101076.25
2022-07-28T20:49:55.162Z,101136.31
2022-07-28T20:54:54.867Z,101163.28
2022-07-28T20:59:53.077Z,101141.59
2022-07-28T21:04:50.736Z,101175.78
2022-07-28T21:09:48.173Z,101107.56
2022-07-28T21:15:53.537Z,101078.56
2022-07-28T21:21:13.366Z,101106.50
2022-07-28T21:26:55.764Z,101183.47
2022-07-28T21:33:07.183Z,101106.50
2022-07-28T21:38:26.170Z,101111.44
2022-07-28T21:43:24.533Z,101188.47
2022-07-28T21:48:24.373Z,101198.88
2022-07-28T21:53:21.795Z,101164.13
2022-07-28T21:58:19.071Z,101205.63
2022-07-28T22:03:16.640Z,101203.81
2022-07-28T22:08:14.986Z,101194.38
2022-07-28T22:13:12.306Z,101157.13
2022-07-28T22:18:13.409Z,101156.84
2022-07-28T22:23:28.676Z,101163.00
2022-07-28T22:28:29.938Z,101132.88
2022-07-28T22:33:27.839Z,101162.63
2022-07-28T22:38:26.364Z,101146.78
2022-07-28T22:43:24.634Z,101199.84
2022-07-28T22:48:21.591Z,101180.41
2022-07-28T22:53:19.637Z,101179.50
2022-07-28T22:58:18.400Z,101131.75
2022-07-28T23:03:15.961Z,101200.94
2022-07-28T23:08:13.545Z,101101.31
2022-07-28T23:13:10.785Z,101186.03
2022-07-28T23:18:09.526Z,101176.69
2022-07-28T23:23:08.185Z,101157.88
2022-07-28T23:28:05.694Z,101156.00
2022-07-28T23:33:04.011Z,101154.31
2022-07-28T23:38:02.160Z,101165.78
2022-07-28T23:42:59.377Z,101106.00
2022-07-28T23:47:58.945Z,101201.66
2022-07-28T23:52:56.367Z,101184.13
2022-07-28T23:57:58.037Z,101165.09
